NATIONAL KEY DEER NWR FL US current weather conditions

sailwx.info

Wind from 143 at 3 knots gusting 15

Air temperature 23.3° C
Dewpoint 22.3° C

Last reported at 2018-May-26 01:38 UTC.
Time now 2018-May-26 02:30 UTC

Location: N 24°43' W 081°23'.
View on Google Maps.

See reports from other nearby stations

  
Tides and Currents Weather Stations Pressure Air Temp Water Temp Dewpoint Dewpoint Depression Visibility Wind Speed Wind Dir Waves Ship Positions
date/time (UTC)wind fromknots sea level pressurealtimeterstation pressurevisibilityair tempwater tempwave heightnotes
2018-May-26 01:38 143 3 gusting 15 23.3
2018-May-26 00:38 127 4 gusting 11 25.0
2018-May-25 23:38 126 6 gusting 11 25.6
2018-May-25 22:38 121 5 gusting 11 25.6
2018-May-25 21:38 121 6 gusting 12 25.6
2018-May-25 20:38 114 5 gusting 8 26.7
2018-May-25 19:38 155 2 gusting 11 25.6
2018-May-25 18:38 173 6 gusting 12 25.6
2018-May-25 17:38 184 4 gusting 11 24.4
2018-May-25 16:38 164 5 gusting 9 25.0
2018-May-25 15:38 136 4 gusting 8 24.4
2018-May-25 14:38 129 0 gusting 3 23.9
2018-May-25 13:38 133 2 gusting 13 22.8
2018-May-25 12:38 106 8 gusting 16 22.8
2018-May-25 11:38 113 0 gusting 4 23.3
2018-May-25 10:38 117 2 gusting 11 22.8
2018-May-25 09:38 038 0 gusting 10 22.2
2018-May-25 08:38 249 5 gusting 14 22.2
2018-May-25 07:38 224 2 gusting 5 23.9
2018-May-25 06:38 246 0 gusting 13 23.3
2018-May-25 05:38 154 3 gusting 10 25.6
2018-May-25 04:38 139 3 gusting 6 25.6
2018-May-25 03:38 118 3 gusting 8 26.1
2018-May-25 02:38 121 1 gusting 6 26.1
2018-May-25 01:38 133 2 gusting 6 26.1
2018-May-25 00:38 126 1 gusting 5 26.1
2018-May-24 23:38 092 3 gusting 6 26.7
2018-May-24 22:38 093 4 gusting 7 27.8
2018-May-24 21:38 107 3 gusting 6 28.3
2018-May-24 20:38 149 4 gusting 8 28.9
2018-May-24 19:38 151 4 gusting 8 29.4
2018-May-24 18:38 141 4 gusting 8 29.4
2018-May-24 17:38 108 5 gusting 8 30.0
2018-May-24 16:38 105 4 gusting 9 29.4
2018-May-24 15:38 117 5 gusting 8 29.4
2018-May-24 14:38 095 5 gusting 9 29.4
2018-May-24 13:38 099 5 gusting 9 28.3
2018-May-24 12:38 089 5 gusting 8 26.7
2018-May-24 11:38 093 4 gusting 7 26.1
2018-May-24 10:38 090 4 gusting 7 25.6
2018-May-24 09:38 093 3 gusting 7 25.6
2018-May-24 08:38 085 3 gusting 6 25.6
2018-May-24 07:38 106 3 gusting 6 25.6
2018-May-24 06:38 099 2 gusting 7 26.1
2018-May-24 05:38 102 3 gusting 6 26.1
2018-May-24 04:38 124 2 gusting 6 26.1
2018-May-24 03:38 108 4 gusting 7 26.1
2018-May-24 02:38 116 4 gusting 7 26.1